createdAt,value
2023-02-17T00:01:35.217Z,99565.44
2023-02-17T00:04:02.751Z,99562.47
2023-02-17T00:06:32.636Z,99554.22
2023-02-17T00:09:00.721Z,99555.03
2023-02-17T00:11:28.632Z,99547.41
2023-02-17T00:13:56.692Z,99543.50
2023-02-17T00:16:26.396Z,99536.28
2023-02-17T00:18:56.546Z,99535.91
2023-02-17T00:21:25.811Z,99533.47
2023-02-17T00:23:53.944Z,99532.28
2023-02-17T00:26:21.340Z,99522.34
2023-02-17T00:28:49.032Z,99522.69
2023-02-17T00:31:19.303Z,99527.25
2023-02-17T00:33:46.530Z,99535.22
2023-02-17T00:36:18.141Z,99527.84
2023-02-17T00:38:45.712Z,99530.81
2023-02-17T00:41:13.395Z,99534.84
2023-02-17T00:43:40.684Z,99535.03
2023-02-17T00:46:08.425Z,99545.06
2023-02-17T00:48:37.874Z,99538.53
2023-02-17T00:51:05.530Z,99537.50
2023-02-17T00:53:32.481Z,99532.81
2023-02-17T00:56:00.114Z,99536.16
2023-02-17T00:58:27.227Z,99537.09
2023-02-17T01:00:58.515Z,99541.06
2023-02-17T01:03:26.823Z,99533.13
2023-02-17T01:05:55.224Z,99542.53
2023-02-17T01:08:25.830Z,99545.66
2023-02-17T01:10:53.268Z,99534.59
2023-02-17T01:13:22.892Z,99540.44
2023-02-17T01:15:54.757Z,99537.91
2023-02-17T01:18:26.262Z,99538.56
2023-02-17T01:20:53.338Z,99538.56
2023-02-17T01:23:20.299Z,99533.75
2023-02-17T01:25:51.136Z,99531.47
2023-02-17T01:28:21.354Z,99526.25
2023-02-17T01:30:50.849Z,99518.50
2023-02-17T01:33:22.303Z,99514.06
2023-02-17T01:35:49.952Z,99508.44
2023-02-17T01:38:17.601Z,99500.47
2023-02-17T01:40:48.620Z,99493.28
2023-02-17T01:43:18.072Z,99492.34
2023-02-17T01:45:56.270Z,99492.25
2023-02-17T01:48:29.890Z,99488.78
2023-02-17T01:51:03.834Z,99475.72
2023-02-17T01:54:01.479Z,99480.00
2023-02-17T01:56:30.366Z,99471.72
2023-02-17T01:59:12.718Z,99467.94
2023-02-17T02:01:40.147Z,99461.16
2023-02-17T02:04:08.199Z,99454.63
2023-02-17T02:06:36.952Z,99455.09
2023-02-17T02:09:20.953Z,99446.53
2023-02-17T02:11:49.688Z,99450.81
2023-02-17T02:14:17.374Z,99448.22
2023-02-17T02:17:07.807Z,99445.38
2023-02-17T02:20:09.090Z,99441.13
2023-02-17T02:23:04.039Z,99435.66
2023-02-17T02:25:40.702Z,99435.88
2023-02-17T02:28:43.309Z,99430.88
2023-02-17T02:31:42.890Z,99430.44
2023-02-17T02:34:22.154Z,99428.31
2023-02-17T02:37:01.153Z,99429.97
2023-02-17T02:39:34.645Z,99425.81
2023-02-17T02:42:05.289Z,99427.16
2023-02-17T02:44:33.167Z,99418.25
2023-02-17T02:47:06.023Z,99405.53
2023-02-17T02:49:35.604Z,99409.06
2023-02-17T02:52:17.852Z,99404.03
2023-02-17T02:54:57.841Z,99403.56
2023-02-17T02:57:59.752Z,99402.03
2023-02-17T03:01:01.582Z,99398.94
2023-02-17T03:03:36.324Z,99389.56
2023-02-17T03:06:08.732Z,99390.41
2023-02-17T03:08:39.526Z,99393.03
2023-02-17T03:11:06.882Z,99385.88
2023-02-17T03:13:38.191Z,99382.22
2023-02-17T03:16:06.632Z,99373.53
2023-02-17T03:18:34.262Z,99375.31
2023-02-17T03:21:07.487Z,99374.38
2023-02-17T03:23:34.334Z,99378.25
2023-02-17T03:26:01.050Z,99383.00
2023-02-17T03:28:27.720Z,99375.53
2023-02-17T03:30:54.872Z,99367.59
2023-02-17T03:33:21.852Z,99371.19
2023-02-17T03:35:48.528Z,99364.53
2023-02-17T03:38:16.087Z,99359.78
2023-02-17T03:40:42.738Z,99358.72
2023-02-17T03:43:09.496Z,99358.81
2023-02-17T03:45:37.951Z,99355.63
2023-02-17T03:48:04.992Z,99358.72
2023-02-17T03:50:32.203Z,99345.16
2023-02-17T03:52:58.861Z,99351.22
2023-02-17T03:55:25.623Z,99356.00
2023-02-17T03:57:52.648Z,99349.13
2023-02-17T04:00:19.935Z,99355.25
2023-02-17T04:02:46.577Z,99353.28
2023-02-17T04:05:13.355Z,99358.38
2023-02-17T04:07:40.334Z,99366.47
2023-02-17T04:10:09.502Z,99362.91
2023-02-17T04:12:36.383Z,99362.69
2023-02-17T04:15:03.288Z,99357.78
2023-02-17T04:17:29.992Z,99364.06
2023-02-17T04:19:56.946Z,99362.69
2023-02-17T04:22:23.628Z,99359.34
2023-02-17T04:24:50.348Z,99361.63
2023-02-17T04:27:17.108Z,99368.50
2023-02-17T04:29:44.187Z,99365.91
2023-02-17T04:32:10.996Z,99365.16
2023-02-17T04:34:37.856Z,99373.38
2023-02-17T04:37:04.687Z,99362.31
2023-02-17T04:39:31.685Z,99350.81
2023-02-17T04:41:58.968Z,99349.63
2023-02-17T04:44:25.788Z,99343.44
2023-02-17T04:46:52.434Z,99342.97
2023-02-17T04:49:19.313Z,99342.25
2023-02-17T04:51:46.342Z,99335.72
2023-02-17T04:54:12.999Z,99336.41
2023-02-17T04:56:39.647Z,99325.84
2023-02-17T04:59:06.341Z,99325.25
2023-02-17T05:01:33.389Z,99327.09
2023-02-17T05:04:00.105Z,99323.84
2023-02-17T05:06:26.807Z,99321.72
2023-02-17T05:08:54.391Z,99320.91
2023-02-17T05:11:21.083Z,99309.00
2023-02-17T05:13:47.763Z,99311.13
2023-02-17T05:16:14.967Z,99319.94
2023-02-17T05:18:42.279Z,99320.31
2023-02-17T05:21:09.099Z,99320.41
2023-02-17T05:23:41.385Z,99324.69
2023-02-17T05:26:11.608Z,99319.84
2023-02-17T05:28:38.562Z,99337.88
2023-02-17T05:31:05.661Z,99325.44
2023-02-17T05:33:32.717Z,99328.97
2023-02-17T05:36:04.548Z,99324.22
2023-02-17T05:38:31.654Z,99323.25
2023-02-17T05:40:58.590Z,99330.66
2023-02-17T05:43:25.656Z,99328.25
2023-02-17T05:45:52.401Z,99326.09
2023-02-17T05:48:19.449Z,99321.34
2023-02-17T05:50:46.617Z,99315.41
2023-02-17T05:53:13.387Z,99316.50
2023-02-17T05:55:40.383Z,99317.53
2023-02-17T05:58:07.134Z,99320.75
2023-02-17T06:00:33.943Z,99318.59
2023-02-17T06:03:00.814Z,99319.41
2023-02-17T06:05:27.807Z,99313.00
2023-02-17T06:07:54.446Z,99313.25
2023-02-17T06:10:21.602Z,99311.13
2023-02-17T06:12:48.394Z,99306.19
2023-02-17T06:15:15.359Z,99317.25
2023-02-17T06:17:42.426Z,99325.13
2023-02-17T06:20:09.854Z,99333.59
2023-02-17T06:22:37.301Z,99334.16
2023-02-17T06:25:04.268Z,99332.50
2023-02-17T06:27:31.478Z,99320.81
2023-02-17T06:29:58.174Z,99326.78
2023-02-17T06:32:24.953Z,99331.53
2023-02-17T06:34:51.886Z,99324.28
2023-02-17T06:37:18.821Z,99327.59
2023-02-17T06:39:45.515Z,99329.13
2023-02-17T06:42:12.327Z,99328.66
2023-02-17T06:44:39.757Z,99323.06
2023-02-17T06:47:06.537Z,99319.50
2023-02-17T06:49:33.264Z,99323.53
2023-02-17T06:51:59.933Z,99321.28
2023-02-17T06:54:26.871Z,99311.59
2023-02-17T06:56:54.016Z,99307.22
2023-02-17T06:59:21.224Z,99311.75
2023-02-17T07:01:50.127Z,99303.41
2023-02-17T07:04:16.961Z,99299.97
2023-02-17T07:06:44.388Z,99299.22
2023-02-17T07:09:13.941Z,99292.19
2023-02-17T07:11:44.614Z,99309.34
2023-02-17T07:14:11.565Z,99317.31
2023-02-17T07:16:39.722Z,99333.03
2023-02-17T07:19:06.684Z,99349.09
2023-02-17T07:21:36.658Z,99351.56
2023-02-17T07:24:04.918Z,99344.63
2023-02-17T07:26:32.198Z,99350.13
2023-02-17T07:28:59.647Z,99342.16
2023-02-17T07:31:27.299Z,99342.34
2023-02-17T07:33:54.183Z,99333.78
2023-02-17T07:36:21.218Z,99328.22
2023-02-17T07:38:48.746Z,99323.63
2023-02-17T07:41:21.633Z,99326.56
2023-02-17T07:43:49.763Z,99325.88
2023-02-17T07:46:17.336Z,99314.16
2023-02-17T07:48:44.725Z,99310.34
2023-02-17T07:51:14.006Z,99297.22
2023-02-17T07:53:40.999Z,99307.47
2023-02-17T07:56:10.006Z,99301.16
2023-02-17T07:58:38.467Z,99306.44
2023-02-17T08:01:10.166Z,99292.50
2023-02-17T08:03:37.870Z,99281.53
2023-02-17T08:06:05.825Z,99275.56
2023-02-17T08:08:53.016Z,99283.53
2023-02-17T08:11:38.410Z,99275.31
2023-02-17T08:14:05.853Z,99277.22
2023-02-17T08:16:32.753Z,99283.78
2023-02-17T08:18:59.600Z,99281.59
2023-02-17T08:21:27.919Z,99292.75
2023-02-17T08:23:55.743Z,99281.16
2023-02-17T08:26:23.594Z,99293.06
2023-02-17T08:28:50.897Z,99290.88
2023-02-17T08:31:29.925Z,99280.06
2023-02-17T08:33:57.088Z,99273.22
2023-02-17T08:36:25.192Z,99290.03
2023-02-17T08:38:53.952Z,99280.16
2023-02-17T08:41:32.311Z,99271.91
2023-02-17T08:44:01.081Z,99270.47
2023-02-17T08:46:29.748Z,99286.22
2023-02-17T08:48:57.035Z,99290.28
2023-02-17T08:51:26.377Z,99287.13
2023-02-17T08:53:55.672Z,99290.72
2023-02-17T08:56:26.064Z,99279.66
2023-02-17T08:58:53.517Z,99273.31
2023-02-17T09:01:21.647Z,99273.44
2023-02-17T09:03:50.146Z,99268.06
2023-02-17T09:06:19.128Z,99277.31
2023-02-17T09:08:46.569Z,99262.59
2023-02-17T09:11:15.815Z,99274.75
2023-02-17T09:13:45.320Z,99276.09
2023-02-17T09:16:12.312Z,99256.25
2023-02-17T09:18:39.301Z,99251.81
2023-02-17T09:21:12.041Z,99254.84
2023-02-17T09:23:39.243Z,99258.72
2023-02-17T09:26:08.503Z,99251.69
2023-02-17T09:28:36.967Z,99262.19
2023-02-17T09:31:12.322Z,99249.63
2023-02-17T09:33:41.072Z,99247.13
2023-02-17T09:36:09.600Z,99242.44
2023-02-17T09:38:40.582Z,99240.78
2023-02-17T09:41:23.300Z,99236.78
2023-02-17T09:43:54.955Z,99236.94
2023-02-17T09:46:55.818Z,99233.34
2023-02-17T09:49:33.634Z,99241.50
2023-02-17T09:52:03.576Z,99231.72
2023-02-17T09:55:09.322Z,99236.84
2023-02-17T09:57:40.586Z,99241.53
2023-02-17T10:00:18.203Z,99236.03
2023-02-17T10:03:12.618Z,99231.91
2023-02-17T10:05:44.624Z,99231.13
2023-02-17T10:08:19.665Z,99234.00
2023-02-17T10:10:53.614Z,99227.38
2023-02-17T10:13:22.860Z,99222.97
2023-02-17T10:15:53.137Z,99230.41
2023-02-17T10:18:40.272Z,99231.25
2023-02-17T10:21:13.435Z,99235.13
2023-02-17T10:23:40.688Z,99224.34
2023-02-17T10:26:16.993Z,99232.78
2023-02-17T10:28:58.653Z,99234.84
2023-02-17T10:32:04.146Z,99223.91
2023-02-17T10:34:37.966Z,99227.94
2023-02-17T10:37:17.455Z,99226.53
2023-02-17T10:39:52.273Z,99238.44
2023-02-17T10:42:35.875Z,99241.91
2023-02-17T10:45:31.749Z,99250.34
2023-02-17T10:48:14.817Z,99245.91
2023-02-17T10:50:43.410Z,99243.97
2023-02-17T10:53:23.184Z,99230.13
2023-02-17T10:56:18.657Z,99241.47
2023-02-17T10:59:11.153Z,99236.50
2023-02-17T11:01:41.472Z,99224.34
2023-02-17T11:04:19.949Z,99229.72
2023-02-17T11:06:53.410Z,99222.78
2023-02-17T11:12:47.803Z,99212.41
2023-02-17T11:15:45.367Z,99212.00
2023-02-17T11:18:27.580Z,99214.19
2023-02-17T11:21:12.942Z,99208.78
2023-02-17T11:24:15.156Z,99210.59
2023-02-17T11:26:45.562Z,99209.06
2023-02-17T11:29:18.530Z,99215.72
2023-02-17T11:32:16.582Z,99226.50
2023-02-17T11:34:44.412Z,99215.44
2023-02-17T11:37:14.622Z,99211.25
2023-02-17T11:39:49.754Z,99217.91
2023-02-17T11:42:28.401Z,99209.75
2023-02-17T11:45:00.705Z,99212.94
2023-02-17T11:47:49.106Z,99205.72
2023-02-17T11:50:41.561Z,99193.38
2023-02-17T11:53:31.655Z,99194.59
2023-02-17T11:56:20.264Z,99188.91
2023-02-17T11:59:11.160Z,99187.09
2023-02-17T12:01:50.646Z,99185.69
2023-02-17T12:05:07.657Z,99177.88
2023-02-17T12:08:00.317Z,99164.00
2023-02-17T12:10:50.268Z,99150.53
2023-02-17T12:13:56.999Z,99163.97
2023-02-17T12:16:52.483Z,99160.63
2023-02-17T12:19:48.314Z,99157.31
2023-02-17T12:22:20.899Z,99163.06
2023-02-17T12:25:09.785Z,99145.31
2023-02-17T12:28:06.623Z,99133.06
2023-02-17T12:30:41.888Z,99134.25
2023-02-17T12:33:30.213Z,99133.81
2023-02-17T12:36:02.000Z,99135.41
2023-02-17T12:38:39.348Z,99132.00
2023-02-17T12:41:11.203Z,99132.25
2023-02-17T12:44:08.131Z,99118.44
2023-02-17T12:46:40.555Z,99126.41
2023-02-17T12:49:19.123Z,99134.63
2023-02-17T12:51:54.434Z,99133.00
2023-02-17T12:54:30.833Z,99125.16
2023-02-17T12:57:57.364Z,99123.56
2023-02-17T13:00:28.336Z,99121.94
2023-02-17T13:03:03.221Z,99102.69
2023-02-17T13:05:44.342Z,99102.13
2023-02-17T13:08:16.926Z,99093.75
2023-02-17T13:10:44.362Z,99077.44
2023-02-17T13:13:14.648Z,99074.03
2023-02-17T13:15:44.439Z,99061.34
2023-02-17T13:18:50.018Z,99044.06
2023-02-17T13:21:29.717Z,99045.56
2023-02-17T13:24:02.344Z,99050.56
2023-02-17T13:26:35.098Z,99038.78
2023-02-17T13:29:22.583Z,99049.06
2023-02-17T13:31:55.635Z,99045.94
2023-02-17T13:34:35.111Z,99044.94
2023-02-17T13:37:35.547Z,99060.94
2023-02-17T13:40:16.532Z,99047.13
2023-02-17T13:42:51.400Z,99045.00
2023-02-17T13:45:40.093Z,99051.75
2023-02-17T13:48:27.914Z,99038.72
2023-02-17T13:51:05.925Z,99033.94
2023-02-17T13:53:42.283Z,99044.53
2023-02-17T13:56:24.272Z,99023.09
2023-02-17T13:58:51.790Z,99029.06
2023-02-17T14:01:25.790Z,99023.28
2023-02-17T14:03:55.485Z,99005.81
2023-02-17T14:06:28.746Z,99015.22
2023-02-17T14:08:57.529Z,99011.88
2023-02-17T14:11:29.459Z,99007.44
2023-02-17T14:13:58.352Z,99018.19
2023-02-17T14:16:30.565Z,99035.69
2023-02-17T14:19:04.968Z,99040.78
2023-02-17T14:21:32.281Z,99052.81
2023-02-17T14:24:03.951Z,99053.31
2023-02-17T14:26:42.939Z,99052.97
2023-02-17T14:29:15.186Z,99047.69
2023-02-17T14:31:46.778Z,99048.69
2023-02-17T14:34:35.244Z,99031.06
2023-02-17T14:37:22.566Z,99045.59
2023-02-17T14:39:49.828Z,99033.69
2023-02-17T14:42:33.898Z,99046.94
2023-02-17T14:45:04.375Z,99037.84
2023-02-17T14:47:33.873Z,99033.22
2023-02-17T14:50:01.364Z,99037.03
2023-02-17T14:52:28.702Z,99034.06
2023-02-17T14:55:00.806Z,99040.66
2023-02-17T14:57:28.584Z,99042.66
2023-02-17T14:59:58.187Z,99045.97
2023-02-17T15:02:25.287Z,99053.00
2023-02-17T15:04:52.144Z,99066.72
2023-02-17T15:07:23.920Z,99066.72
2023-02-17T15:09:50.637Z,99064.41
2023-02-17T15:12:21.180Z,99058.00
2023-02-17T15:14:55.477Z,99056.00
2023-02-17T15:17:22.150Z,99047.09
2023-02-17T15:19:49.802Z,99047.13
2023-02-17T15:22:16.858Z,99029.94
2023-02-17T15:24:43.967Z,99035.88
2023-02-17T15:27:13.642Z,99020.84
2023-02-17T15:29:41.588Z,99013.91
2023-02-17T15:32:21.677Z,99031.41
2023-02-17T15:34:48.508Z,99037.16
2023-02-17T15:37:15.588Z,99029.44
2023-02-17T15:39:42.872Z,99024.47
2023-02-17T15:42:13.843Z,99027.09
2023-02-17T15:44:47.369Z,99024.13
2023-02-17T15:47:17.674Z,99030.41
2023-02-17T15:49:44.797Z,99027.72
2023-02-17T15:52:13.619Z,99023.78
2023-02-17T15:54:43.901Z,99016.84
2023-02-17T15:57:21.292Z,99012.22
2023-02-17T15:59:48.381Z,99012.56
2023-02-17T16:02:22.068Z,99019.50
2023-02-17T16:04:49.245Z,99013.22
2023-02-17T16:07:16.535Z,99011.88
2023-02-17T16:09:45.154Z,99012.22
2023-02-17T16:12:18.616Z,99012.41
2023-02-17T16:14:46.710Z,99018.16
2023-02-17T16:17:17.869Z,99023.78
2023-02-17T16:19:46.216Z,99035.16
2023-02-17T16:22:13.882Z,99040.13
2023-02-17T16:24:41.066Z,99048.84
2023-02-17T16:27:11.137Z,99057.94
2023-02-17T16:29:37.895Z,99053.16
2023-02-17T16:32:04.825Z,99062.38
2023-02-17T16:34:33.786Z,99069.97
2023-02-17T16:37:08.046Z,99072.59
2023-02-17T16:39:35.664Z,99068.25
2023-02-17T16:42:02.989Z,99068.53
2023-02-17T16:44:29.912Z,99087.78
2023-02-17T16:46:57.351Z,99088.22
2023-02-17T16:49:32.900Z,99097.09
2023-02-17T16:52:02.117Z,99102.44
2023-02-17T16:54:29.284Z,99105.84
2023-02-17T16:56:56.485Z,99115.34
2023-02-17T16:59:24.725Z,99119.59
2023-02-17T17:01:53.457Z,99141.56
2023-02-17T17:04:21.567Z,99150.75
2023-02-17T17:06:50.593Z,99144.13
2023-02-17T17:09:21.726Z,99149.09
2023-02-17T17:11:49.157Z,99160.16
2023-02-17T17:14:16.411Z,99159.09
2023-02-17T17:16:50.705Z,99167.88
2023-02-17T17:19:17.589Z,99170.31
2023-02-17T17:21:44.487Z,99167.97
2023-02-17T17:24:11.349Z,99184.47
2023-02-17T17:26:41.761Z,99183.25
2023-02-17T17:29:11.230Z,99199.31
2023-02-17T17:31:38.422Z,99201.00
2023-02-17T17:34:05.533Z,99203.25
2023-02-17T17:36:41.337Z,99206.81
2023-02-17T17:39:16.969Z,99207.66
2023-02-17T17:41:44.801Z,99209.19
2023-02-17T17:44:11.694Z,99209.84
2023-02-17T17:46:44.478Z,99199.31
2023-02-17T17:49:20.068Z,99191.13
2023-02-17T17:51:55.879Z,99196.94
2023-02-17T17:54:28.837Z,99196.13
2023-02-17T17:57:01.445Z,99207.59
2023-02-17T17:59:32.795Z,99200.53
2023-02-17T18:01:59.732Z,99210.63
2023-02-17T18:04:27.514Z,99216.22
2023-02-17T18:06:55.584Z,99218.53
2023-02-17T18:09:31.818Z,99237.66
2023-02-17T18:12:03.855Z,99241.94
2023-02-17T18:14:31.026Z,99229.03
2023-02-17T18:16:58.382Z,99243.00
2023-02-17T18:19:25.783Z,99245.78
2023-02-17T18:21:52.658Z,99242.28
2023-02-17T18:24:19.676Z,99259.78
2023-02-17T18:26:46.862Z,99257.75
2023-02-17T18:29:18.866Z,99265.19
2023-02-17T18:31:46.008Z,99266.78
2023-02-17T18:34:12.887Z,99264.28
2023-02-17T18:36:39.651Z,99276.78
2023-02-17T18:39:06.417Z,99275.13
2023-02-17T18:41:38.426Z,99279.50
2023-02-17T18:44:05.939Z,99286.59
2023-02-17T18:46:33.776Z,99270.81
2023-02-17T18:49:01.365Z,99277.78
2023-02-17T18:51:32.560Z,99289.16
2023-02-17T18:54:00.205Z,99309.38
2023-02-17T18:56:29.666Z,99309.16
2023-02-17T18:58:57.529Z,99305.53
2023-02-17T19:01:30.548Z,99308.84
2023-02-17T19:03:58.293Z,99304.59
2023-02-17T19:06:28.725Z,99316.91
2023-02-17T19:08:59.711Z,99323.03
2023-02-17T19:11:27.108Z,99326.94
2023-02-17T19:13:54.204Z,99328.44
2023-02-17T19:16:24.612Z,99328.03
2023-02-17T19:18:51.896Z,99336.06
2023-02-17T19:21:19.080Z,99340.06
2023-02-17T19:23:46.242Z,99359.03
2023-02-17T19:26:14.234Z,99360.28
2023-02-17T19:28:41.963Z,99348.53
2023-02-17T19:31:14.638Z,99346.31
2023-02-17T19:33:41.930Z,99364.34
2023-02-17T19:36:14.525Z,99357.41
2023-02-17T19:38:41.266Z,99356.47
2023-02-17T19:41:10.275Z,99363.22
2023-02-17T19:43:37.306Z,99368.22
2023-02-17T19:46:04.810Z,99361.44
2023-02-17T19:48:32.026Z,99356.03
2023-02-17T19:51:01.315Z,99357.41
2023-02-17T19:53:28.757Z,99337.78
2023-02-17T19:55:55.503Z,99345.38
2023-02-17T19:58:22.695Z,99339.44
2023-02-17T20:00:49.816Z,99353.03
2023-02-17T20:03:17.243Z,99344.41
2023-02-17T20:05:44.121Z,99346.50
2023-02-17T20:08:10.826Z,99351.09
2023-02-17T20:10:40.064Z,99345.25
2023-02-17T20:13:07.322Z,99350.50
2023-02-17T20:15:34.466Z,99351.47
2023-02-17T20:18:01.176Z,99356.50
2023-02-17T20:20:27.890Z,99353.44
2023-02-17T20:22:55.277Z,99342.22
2023-02-17T20:25:21.933Z,99355.94
2023-02-17T20:27:49.132Z,99334.75
2023-02-17T20:30:15.935Z,99332.25
2023-02-17T20:32:42.595Z,99335.03
2023-02-17T20:35:13.243Z,99348.03
2023-02-17T20:37:39.978Z,99347.31
2023-02-17T20:40:07.568Z,99340.28
2023-02-17T20:42:34.485Z,99340.28
2023-02-17T20:45:01.591Z,99338.06
2023-02-17T20:47:29.595Z,99347.72
2023-02-17T20:49:56.264Z,99340.28
2023-02-17T20:52:22.981Z,99343.59
2023-02-17T20:54:49.898Z,99346.47
2023-02-17T20:57:17.121Z,99350.78
2023-02-17T20:59:43.853Z,99348.72
2023-02-17T21:02:11.425Z,99360.75
2023-02-17T21:04:38.173Z,99362.25
2023-02-17T21:07:05.024Z,99355.88
2023-02-17T21:09:31.860Z,99367.94
2023-02-17T21:11:58.511Z,99350.50
2023-02-17T21:14:25.508Z,99359.78
2023-02-17T21:16:52.078Z,99361.28
2023-02-17T21:19:20.062Z,99365.16
2023-02-17T21:21:46.909Z,99360.16
2023-02-17T21:24:14.214Z,99366.13
2023-02-17T21:26:41.158Z,99374.03
2023-02-17T21:29:08.285Z,99370.84
2023-02-17T21:31:36.811Z,99379.53
2023-02-17T21:34:08.702Z,99386.06
2023-02-17T21:36:35.632Z,99381.78
2023-02-17T21:39:05.261Z,99386.19
2023-02-17T21:41:37.493Z,99382.03
2023-02-17T21:44:23.302Z,99384.53
2023-02-17T21:46:50.244Z,99403.75
2023-02-17T21:49:17.124Z,99386.06
2023-02-17T21:51:44.399Z,99385.78
2023-02-17T21:54:11.698Z,99402.66
2023-02-17T21:56:38.919Z,99402.66
2023-02-17T21:59:06.094Z,99398.91
2023-02-17T22:01:32.956Z,99396.41
2023-02-17T22:03:59.926Z,99396.97
2023-02-17T22:06:29.747Z,99399.16
2023-02-17T22:08:57.967Z,99397.25
2023-02-17T22:11:32.708Z,99399.16
2023-02-17T22:14:02.320Z,99401.97
2023-02-17T22:16:31.580Z,99408.88
2023-02-17T22:19:02.729Z,99418.28
2023-02-17T22:21:29.720Z,99410.13
2023-02-17T22:23:58.717Z,99418.28
2023-02-17T22:26:26.549Z,99410.28
2023-02-17T22:28:53.904Z,99410.28
2023-02-17T22:31:23.313Z,99402.53
2023-02-17T22:33:50.055Z,99408.59
2023-02-17T22:36:20.399Z,99421.34
2023-02-17T22:38:47.940Z,99422.81
2023-02-17T22:41:19.765Z,99423.81
2023-02-17T22:43:48.276Z,99428.09
2023-02-17T22:46:16.917Z,99419.25
2023-02-17T22:48:45.674Z,99427.97
2023-02-17T22:51:14.830Z,99432.13
2023-02-17T22:53:42.369Z,99426.97
2023-02-17T22:56:09.446Z,99420.19
2023-02-17T22:58:37.071Z,99428.25
2023-02-17T23:01:21.003Z,99431.00
2023-02-17T23:03:54.310Z,99430.03
2023-02-17T23:06:28.254Z,99428.09
2023-02-17T23:08:56.002Z,99435.16
2023-02-17T23:11:47.632Z,99424.66
2023-02-17T23:14:15.495Z,99434.31
2023-02-17T23:16:42.416Z,99427.41
2023-02-17T23:19:11.216Z,99422.81
2023-02-17T23:21:42.021Z,99425.47
2023-02-17T23:24:09.889Z,99424.66
2023-02-17T23:26:36.686Z,99436.50
2023-02-17T23:29:03.687Z,99435.97
2023-02-17T23:31:30.557Z,99435.72
2023-02-17T23:33:57.346Z,99431.97
2023-02-17T23:36:24.737Z,99437.78
2023-02-17T23:38:51.742Z,99439.16
2023-02-17T23:41:18.408Z,99423.81
2023-02-17T23:43:45.043Z,99420.06
2023-02-17T23:46:12.276Z,99424.34
2023-02-17T23:48:39.157Z,99428.25
2023-02-17T23:51:06.139Z,99420.19
2023-02-17T23:53:33.780Z,99415.22
2023-02-17T23:56:09.557Z,99416.63
2023-02-17T23:58:36.824Z,99424.09
